Terminal Aerodrome Forecast
Issued by NWS Sioux Falls, SD

Home | Current Version | Previous Version | Graphics & Text | Print | Product List | Glossary On
Versions: 1 2 3 4 5 6 7 8 9 10 11 12 13 14 15 16 17 18 19 20 21 22 23 24 25 26 27 28
000
FTUS43 KFSD 220521
TAFSUX
TAF
KSUX 220521Z 2206/2306 33005KT P6SM BKN015
     FM221200 VRB03KT P6SM SCT015
     FM221500 24006KT P6SM SCT020
     FM222000 21009KT P6SM FEW150=

USA.gov is the U.S. government's official web portal to all federal, state and local government web resources and services.